createdAt,value
2017-10-10T00:00:55.578Z,7.07
2017-10-10T00:03:23.994Z,10.73
2017-10-10T00:05:52.276Z,7.97
2017-10-10T00:08:20.675Z,6.97
2017-10-10T00:10:48.993Z,9.17
2017-10-10T00:13:18.047Z,10.10
2017-10-10T00:15:46.358Z,8.60
2017-10-10T00:18:14.667Z,10.70
2017-10-10T00:20:42.955Z,10.60
2017-10-10T00:23:11.279Z,8.20
2017-10-10T00:25:39.560Z,12.27
2017-10-10T00:28:08.602Z,15.50
2017-10-10T00:30:36.915Z,9.93
2017-10-10T00:33:05.200Z,10.43
2017-10-10T00:35:33.511Z,8.97
2017-10-10T00:38:01.787Z,9.90
2017-10-10T00:40:30.100Z,10.40
2017-10-10T00:42:59.178Z,13.97
2017-10-10T00:45:27.572Z,12.10
2017-10-10T00:47:55.853Z,9.57
2017-10-10T00:50:24.167Z,14.53
2017-10-10T00:52:53.210Z,11.20
2017-10-10T00:55:21.495Z,15.43
2017-10-10T00:57:49.830Z,13.20
2017-10-10T01:00:18.116Z,9.83
2017-10-10T01:02:46.394Z,15.03
2017-10-10T01:05:14.803Z,12.53
2017-10-10T01:07:43.095Z,13.60
2017-10-10T01:10:11.378Z,17.67
2017-10-10T01:12:40.663Z,14.77
2017-10-10T01:15:08.938Z,11.40
2017-10-10T01:17:37.271Z,11.77
2017-10-10T01:20:05.591Z,17.00
2017-10-10T01:22:34.681Z,14.77
2017-10-10T01:25:02.974Z,14.63
2017-10-10T01:27:32.891Z,12.53
2017-10-10T01:30:01.217Z,13.63
2017-10-10T01:32:30.259Z,12.73
2017-10-10T01:34:58.566Z,12.00
2017-10-10T01:37:26.962Z,26.63
2017-10-10T01:39:55.257Z,14.70
2017-10-10T01:42:23.563Z,12.67
2017-10-10T01:44:51.866Z,12.07
2017-10-10T01:47:20.954Z,14.07
2017-10-10T01:49:49.272Z,11.50
2017-10-10T01:52:18.349Z,15.17
2017-10-10T01:54:46.727Z,11.87
2017-10-10T01:57:15.039Z,13.40
2017-10-10T01:59:44.087Z,14.30
2017-10-10T02:02:12.410Z,12.33
2017-10-10T02:04:40.803Z,14.03
2017-10-10T02:07:09.083Z,12.43
2017-10-10T02:09:37.483Z,10.90
2017-10-10T02:12:05.766Z,16.17
2017-10-10T02:14:34.989Z,12.60
2017-10-10T02:17:03.280Z,12.67
2017-10-10T02:19:31.611Z,13.80
2017-10-10T02:21:59.899Z,13.90
2017-10-10T02:24:28.230Z,13.40
2017-10-10T02:26:56.610Z,14.33
2017-10-10T02:29:24.900Z,14.73
2017-10-10T02:31:53.219Z,14.10
2017-10-10T02:34:21.547Z,15.57
2017-10-10T02:36:49.845Z,15.50
2017-10-10T02:39:18.173Z,16.60
2017-10-10T02:41:46.465Z,16.70
2017-10-10T02:44:14.858Z,14.97
2017-10-10T02:46:43.250Z,15.30
2017-10-10T02:49:11.568Z,14.83
2017-10-10T02:51:40.665Z,21.33
2017-10-10T02:54:08.992Z,23.73
2017-10-10T02:56:37.317Z,22.57
2017-10-10T02:59:05.652Z,19.40
2017-10-10T03:01:34.739Z,16.47
2017-10-10T03:04:03.026Z,18.40
2017-10-10T03:06:31.323Z,33.97
2017-10-10T03:08:59.647Z,18.07
2017-10-10T03:11:27.981Z,21.20
2017-10-10T03:13:56.387Z,17.03
2017-10-10T03:16:24.675Z,20.93
2017-10-10T03:18:52.966Z,19.97
2017-10-10T03:21:21.290Z,17.73
2017-10-10T03:23:49.642Z,17.93
2017-10-10T03:26:17.966Z,24.23
2017-10-10T03:28:46.258Z,19.70
2017-10-10T03:31:14.591Z,20.67
2017-10-10T03:33:42.907Z,25.30
2017-10-10T03:36:11.236Z,25.27
2017-10-10T03:38:39.544Z,23.20
2017-10-10T03:41:07.888Z,17.77
2017-10-10T03:43:36.946Z,25.40
2017-10-10T03:46:05.236Z,22.53
2017-10-10T03:48:33.567Z,23.40
2017-10-10T03:51:02.636Z,19.87
2017-10-10T03:53:30.925Z,26.43
2017-10-10T03:55:59.254Z,27.33
2017-10-10T03:58:27.574Z,22.33
2017-10-10T04:00:55.903Z,19.77
2017-10-10T04:03:24.212Z,21.67
2017-10-10T04:05:52.538Z,22.57
2017-10-10T04:08:20.880Z,23.10
2017-10-10T04:10:49.216Z,23.47
2017-10-10T04:13:17.510Z,26.23
2017-10-10T04:15:45.804Z,26.27
2017-10-10T04:18:14.136Z,23.90
2017-10-10T04:20:42.433Z,27.80
2017-10-10T04:23:10.747Z,20.43
2017-10-10T04:25:39.852Z,20.57
2017-10-10T04:28:08.919Z,21.77
2017-10-10T04:30:37.210Z,21.33
2017-10-10T04:33:05.776Z,23.80
2017-10-10T04:35:34.104Z,20.40
2017-10-10T04:38:02.397Z,22.37
2017-10-10T04:40:30.686Z,19.90
2017-10-10T04:42:59.019Z,20.50
2017-10-10T04:45:28.097Z,19.97
2017-10-10T04:47:56.422Z,17.10
2017-10-10T04:50:24.714Z,19.10
2017-10-10T04:52:53.058Z,15.37
2017-10-10T04:55:21.400Z,18.80
2017-10-10T04:57:49.687Z,15.27
2017-10-10T05:00:18.035Z,18.40
2017-10-10T05:02:46.322Z,15.70
2017-10-10T05:05:14.654Z,18.37
2017-10-10T05:07:42.938Z,14.10
2017-10-10T05:10:11.258Z,14.33
2017-10-10T05:12:39.551Z,16.07
2017-10-10T05:15:07.878Z,12.83
2017-10-10T05:17:36.167Z,14.17
2017-10-10T05:20:04.496Z,16.00
2017-10-10T05:22:32.811Z,15.60
2017-10-10T05:25:01.095Z,13.53
2017-10-10T05:27:29.420Z,14.30
2017-10-10T05:29:57.746Z,11.53
2017-10-10T05:32:26.090Z,12.00
2017-10-10T05:34:54.410Z,14.57
2017-10-10T05:37:23.486Z,12.30
2017-10-10T05:39:51.798Z,13.40
2017-10-10T05:42:20.082Z,13.63
2017-10-10T05:44:49.178Z,13.20
2017-10-10T05:47:17.472Z,13.73
2017-10-10T05:49:45.854Z,12.27
2017-10-10T05:52:14.242Z,13.30
2017-10-10T05:54:42.564Z,12.43
2017-10-10T05:57:11.660Z,14.97
2017-10-10T05:59:40.710Z,12.80
2017-10-10T06:02:09.022Z,12.50
2017-10-10T06:04:37.314Z,13.17
2017-10-10T06:07:05.648Z,15.33
2017-10-10T06:09:34.708Z,13.57
2017-10-10T06:12:02.997Z,11.60
2017-10-10T06:14:31.310Z,14.37
2017-10-10T06:16:59.595Z,15.70
2017-10-10T06:19:27.931Z,14.83
2017-10-10T06:21:56.270Z,11.50
2017-10-10T06:24:24.559Z,13.80
2017-10-10T06:26:52.888Z,13.17
2017-10-10T06:29:21.938Z,13.90
2017-10-10T06:31:50.262Z,14.07
2017-10-10T06:34:18.554Z,14.37
2017-10-10T06:36:47.639Z,14.20
2017-10-10T06:39:16.043Z,17.60
2017-10-10T06:41:44.430Z,15.10
2017-10-10T06:44:12.823Z,18.63
2017-10-10T06:46:41.152Z,16.23
2017-10-10T06:49:09.498Z,12.93
2017-10-10T06:51:37.832Z,13.40
2017-10-10T06:54:06.122Z,16.83
2017-10-10T06:56:34.450Z,16.93
2017-10-10T06:59:02.735Z,16.00
2017-10-10T07:01:31.032Z,13.10
2017-10-10T07:03:59.347Z,14.40
2017-10-10T07:06:27.644Z,13.90
2017-10-10T07:08:56.731Z,13.10
2017-10-10T07:11:25.333Z,13.23
2017-10-10T07:13:53.655Z,22.30
2017-10-10T07:16:22.747Z,15.00
2017-10-10T07:18:51.115Z,14.90
2017-10-10T07:21:19.436Z,15.20
2017-10-10T07:23:48.520Z,15.57
2017-10-10T07:26:16.850Z,16.10
2017-10-10T07:28:45.199Z,16.93
2017-10-10T07:31:13.499Z,18.70
2017-10-10T07:33:42.639Z,16.57
2017-10-10T07:36:10.932Z,21.20
2017-10-10T07:38:39.219Z,23.73
2017-10-10T07:41:07.560Z,18.83
2017-10-10T07:43:37.409Z,19.83
2017-10-10T07:46:06.508Z,21.87
2017-10-10T07:48:34.798Z,19.33
2017-10-10T07:51:03.894Z,18.50
2017-10-10T07:53:32.235Z,19.17
2017-10-10T07:56:00.521Z,16.73
2017-10-10T07:58:28.811Z,19.93
2017-10-10T08:00:57.141Z,17.43
2017-10-10T08:03:25.470Z,24.67
2017-10-10T08:05:54.530Z,18.43
2017-10-10T08:08:22.825Z,18.50
2017-10-10T08:10:51.230Z,19.10
2017-10-10T08:13:19.567Z,17.80
2017-10-10T08:15:47.858Z,19.17
2017-10-10T08:18:16.195Z,14.53
2017-10-10T08:20:44.491Z,17.07
2017-10-10T08:23:12.819Z,15.30
2017-10-10T08:25:41.106Z,17.67
2017-10-10T08:28:09.458Z,15.60
2017-10-10T08:30:37.951Z,14.70
2017-10-10T08:33:06.338Z,14.13
2017-10-10T08:35:34.671Z,13.67
2017-10-10T08:38:02.963Z,16.57
2017-10-10T08:40:31.269Z,15.27
2017-10-10T08:42:59.563Z,17.03
2017-10-10T08:45:28.004Z,13.57
2017-10-10T08:47:57.112Z,19.43
2017-10-10T08:50:25.431Z,13.53
2017-10-10T08:52:53.727Z,14.60
2017-10-10T08:55:22.038Z,12.13
2017-10-10T08:57:50.363Z,11.13
2017-10-10T09:00:18.675Z,9.00
2017-10-10T09:02:47.718Z,7.50
2017-10-10T09:05:16.040Z,6.90
2017-10-10T09:07:44.351Z,8.73
2017-10-10T09:10:12.640Z,9.20
2017-10-10T09:12:41.827Z,8.93
2017-10-10T09:15:10.151Z,7.93
2017-10-10T09:17:39.195Z,9.40
2017-10-10T09:20:07.488Z,7.77
2017-10-10T09:22:35.910Z,12.60
2017-10-10T09:25:04.203Z,9.10
2017-10-10T09:27:33.296Z,14.90
2017-10-10T09:30:01.699Z,15.30
2017-10-10T09:32:29.985Z,9.90
2017-10-10T09:34:58.303Z,7.57
2017-10-10T09:37:27.483Z,8.93
2017-10-10T09:39:55.802Z,7.53
2017-10-10T09:42:24.860Z,12.50
2017-10-10T09:44:53.178Z,12.03
2017-10-10T09:47:21.464Z,12.20
2017-10-10T09:49:49.802Z,11.70
2017-10-10T09:52:18.090Z,10.03
2017-10-10T09:54:46.426Z,12.27
2017-10-10T09:57:14.828Z,9.90
2017-10-10T09:59:43.152Z,9.27
2017-10-10T10:02:12.252Z,10.13
2017-10-10T10:04:41.304Z,8.60
2017-10-10T10:07:09.591Z,16.13
2017-10-10T10:09:37.938Z,8.90
2017-10-10T10:12:06.986Z,8.07
2017-10-10T10:14:35.269Z,6.83
2017-10-10T10:17:03.589Z,6.10
2017-10-10T10:19:31.926Z,6.40
2017-10-10T10:22:00.973Z,5.37
2017-10-10T10:24:29.247Z,4.77
2017-10-10T10:26:57.559Z,7.53
2017-10-10T10:29:25.955Z,6.63
2017-10-10T10:31:54.274Z,9.77
2017-10-10T10:34:23.318Z,7.63
2017-10-10T10:36:51.640Z,8.70
2017-10-10T10:39:19.950Z,7.63
2017-10-10T10:41:48.322Z,8.70
2017-10-10T10:44:16.602Z,8.73
2017-10-10T10:46:44.915Z,8.30
2017-10-10T10:49:13.190Z,8.53
2017-10-10T10:51:41.515Z,8.67
2017-10-10T10:54:10.568Z,9.87
2017-10-10T10:56:38.850Z,8.10
2017-10-10T10:59:07.190Z,9.97
2017-10-10T11:01:35.462Z,9.37
2017-10-10T11:04:03.790Z,11.47
2017-10-10T11:06:32.126Z,8.77
2017-10-10T11:09:00.428Z,12.10
2017-10-10T11:11:28.810Z,9.20
2017-10-10T11:13:57.132Z,12.03
2017-10-10T11:16:26.179Z,9.27
2017-10-10T11:18:54.462Z,12.47
2017-10-10T11:21:22.786Z,13.77
2017-10-10T11:23:51.071Z,10.80
2017-10-10T11:26:19.387Z,25.10
2017-10-10T11:28:47.707Z,38.90
2017-10-10T11:31:16.148Z,17.13
2017-10-10T11:33:44.432Z,28.70
2017-10-10T11:36:12.727Z,20.60
2017-10-10T11:38:41.115Z,17.03
2017-10-10T11:41:10.917Z,16.33
2017-10-10T11:43:39.331Z,15.80
2017-10-10T11:46:07.732Z,15.10
2017-10-10T11:48:36.015Z,20.60
2017-10-10T11:51:04.402Z,18.80
2017-10-10T11:53:32.794Z,18.40
2017-10-10T11:56:01.111Z,18.77
2017-10-10T11:58:30.161Z,15.10
2017-10-10T12:00:58.451Z,15.13
2017-10-10T12:03:26.770Z,19.87
2017-10-10T12:05:55.099Z,18.43
2017-10-10T12:08:24.186Z,21.10
2017-10-10T12:10:52.479Z,18.90
2017-10-10T12:13:20.795Z,21.13
2017-10-10T12:15:49.086Z,28.10
2017-10-10T12:18:17.440Z,19.80
2017-10-10T12:20:45.763Z,19.00
2017-10-10T12:23:14.046Z,19.40
2017-10-10T12:25:42.387Z,22.93
2017-10-10T12:28:10.686Z,19.90
2017-10-10T12:30:38.970Z,19.30
2017-10-10T12:33:07.298Z,18.30
2017-10-10T12:35:36.362Z,20.03
2017-10-10T12:38:04.666Z,23.50
2017-10-10T12:40:32.986Z,21.53
2017-10-10T12:43:02.075Z,19.33
2017-10-10T12:45:30.405Z,19.60
2017-10-10T12:47:58.732Z,17.57
2017-10-10T12:50:27.071Z,18.27
2017-10-10T12:52:56.122Z,20.27
2017-10-10T12:55:24.447Z,21.03
2017-10-10T12:57:53.535Z,17.80
2017-10-10T13:00:21.940Z,18.40
2017-10-10T13:02:50.241Z,19.93
2017-10-10T13:05:19.302Z,19.77
2017-10-10T13:07:47.625Z,17.00
2017-10-10T13:10:15.906Z,17.43
2017-10-10T13:12:45.892Z,22.50
2017-10-10T13:15:14.215Z,26.40
2017-10-10T13:17:42.555Z,19.50
2017-10-10T13:20:10.839Z,19.03
2017-10-10T13:22:39.130Z,16.93
2017-10-10T13:25:07.455Z,18.77
2017-10-10T13:27:35.744Z,21.40
2017-10-10T13:30:04.072Z,18.03
2017-10-10T13:32:33.159Z,20.20
2017-10-10T13:35:01.457Z,18.67
2017-10-10T13:37:29.852Z,23.57
2017-10-10T13:39:58.147Z,23.47
2017-10-10T13:42:26.532Z,26.20
2017-10-10T13:44:54.818Z,22.27
2017-10-10T13:47:23.146Z,24.53
2017-10-10T13:49:51.440Z,27.13
2017-10-10T13:52:19.736Z,25.60
2017-10-10T13:54:48.066Z,24.60
2017-10-10T13:57:16.364Z,26.73
2017-10-10T13:59:44.692Z,19.90
2017-10-10T14:02:13.007Z,22.73
2017-10-10T14:04:41.319Z,28.50
2017-10-10T14:07:09.715Z,26.23
2017-10-10T14:09:38.007Z,27.10
2017-10-10T14:12:06.327Z,23.47
2017-10-10T14:14:35.378Z,24.40
2017-10-10T14:17:03.708Z,24.23
2017-10-10T14:19:32.000Z,22.07
2017-10-10T14:22:00.327Z,26.00
2017-10-10T14:24:28.615Z,23.97
2017-10-10T14:26:56.950Z,24.10
2017-10-10T14:29:25.243Z,21.40
2017-10-10T14:31:53.562Z,23.60
2017-10-10T14:34:22.639Z,22.13
2017-10-10T14:36:50.941Z,21.67
2017-10-10T14:39:20.767Z,18.03
2017-10-10T14:41:49.822Z,22.83
2017-10-10T14:44:18.151Z,26.07
2017-10-10T14:46:46.554Z,23.13
2017-10-10T14:49:14.839Z,26.00
2017-10-10T14:51:44.635Z,23.67
2017-10-10T14:54:13.047Z,23.20
2017-10-10T14:56:41.370Z,25.40
2017-10-10T14:59:10.471Z,21.33
2017-10-10T15:01:39.580Z,28.70
2017-10-10T15:04:08.639Z,25.63
2017-10-10T15:06:36.933Z,19.93
2017-10-10T15:09:05.350Z,25.03
2017-10-10T15:11:34.660Z,21.57
2017-10-10T15:14:04.513Z,22.03
2017-10-10T15:16:33.615Z,22.87
2017-10-10T15:19:02.687Z,23.10
2017-10-10T15:21:30.972Z,22.43
2017-10-10T15:23:59.291Z,21.70
2017-10-10T15:26:27.611Z,17.43
2017-10-10T15:28:55.908Z,22.77
2017-10-10T15:31:24.239Z,20.47
2017-10-10T15:33:52.628Z,22.17
2017-10-10T15:36:20.960Z,23.43
2017-10-10T15:38:50.034Z,24.67
2017-10-10T15:41:18.354Z,24.53
2017-10-10T15:43:47.451Z,22.57
2017-10-10T15:46:16.506Z,21.87
2017-10-10T15:48:44.819Z,24.23
2017-10-10T15:51:13.117Z,25.60
2017-10-10T15:53:41.442Z,25.57
2017-10-10T15:56:09.734Z,17.10
2017-10-10T15:58:38.054Z,22.80
2017-10-10T16:01:06.387Z,24.30
2017-10-10T16:03:34.785Z,21.93
2017-10-10T16:06:04.707Z,21.93
2017-10-10T16:08:33.029Z,22.50
2017-10-10T16:11:02.124Z,22.20
2017-10-10T16:13:30.413Z,25.60
2017-10-10T16:15:58.743Z,22.60
2017-10-10T16:18:27.079Z,19.70
2017-10-10T16:20:55.411Z,20.77
2017-10-10T16:23:24.581Z,22.17
2017-10-10T16:25:53.068Z,24.80
2017-10-10T16:28:22.939Z,20.80
2017-10-10T16:30:52.308Z,23.33
2017-10-10T16:33:22.446Z,22.20
2017-10-10T16:35:52.018Z,24.00
2017-10-10T16:38:21.048Z,24.60
2017-10-10T16:40:51.336Z,22.37
2017-10-10T16:43:21.337Z,20.23
2017-10-10T16:45:50.798Z,26.17
2017-10-10T16:48:20.680Z,26.83
2017-10-10T16:50:49.788Z,21.17
2017-10-10T16:53:19.281Z,26.27
2017-10-10T16:55:49.335Z,19.50
2017-10-10T16:58:18.727Z,26.77
2017-10-10T17:00:48.936Z,20.70
2017-10-10T17:03:18.196Z,22.60
2017-10-10T17:05:47.470Z,20.10
2017-10-10T17:08:16.523Z,20.17
2017-10-10T17:10:45.791Z,22.40
2017-10-10T17:13:16.165Z,22.77
2017-10-10T17:15:46.653Z,22.30
2017-10-10T17:18:15.945Z,18.97
2017-10-10T17:20:44.994Z,22.63
2017-10-10T17:23:13.288Z,28.80
2017-10-10T17:25:41.712Z,25.97
2017-10-10T17:28:10.112Z,17.33
2017-10-10T17:30:38.488Z,17.80
2017-10-10T17:33:06.774Z,19.40
2017-10-10T17:35:35.118Z,20.70
2017-10-10T17:38:03.408Z,18.33
2017-10-10T17:40:31.755Z,17.10
2017-10-10T17:43:00.084Z,19.30
2017-10-10T17:45:29.176Z,23.57
2017-10-10T17:47:58.280Z,21.37
2017-10-10T17:50:26.562Z,19.83
2017-10-10T17:52:54.943Z,17.20
2017-10-10T17:55:23.231Z,19.63
2017-10-10T17:57:51.514Z,19.50
2017-10-10T18:00:19.838Z,17.20
2017-10-10T18:02:48.898Z,17.40
2017-10-10T18:05:17.230Z,18.50
2017-10-10T18:07:46.305Z,18.60
2017-10-10T18:10:16.284Z,18.90
2017-10-10T18:12:44.611Z,17.60
2017-10-10T18:15:13.023Z,16.07
2017-10-10T18:17:41.318Z,17.80
2017-10-10T18:20:09.651Z,15.47
2017-10-10T18:22:37.989Z,20.00
2017-10-10T18:25:06.291Z,14.70
2017-10-10T18:27:36.114Z,15.27
2017-10-10T18:30:04.460Z,17.90
2017-10-10T18:32:32.759Z,18.17
2017-10-10T18:35:01.054Z,15.37
2017-10-10T18:37:29.387Z,17.30
2017-10-10T18:39:58.438Z,16.97
2017-10-10T18:42:26.767Z,14.87
2017-10-10T18:44:55.154Z,15.70
2017-10-10T18:47:23.566Z,16.00
2017-10-10T18:49:51.874Z,14.53
2017-10-10T18:52:20.986Z,19.07
2017-10-10T18:54:49.343Z,20.87
2017-10-10T18:57:17.674Z,16.03
2017-10-10T18:59:46.029Z,20.20
2017-10-10T19:02:15.089Z,23.03
2017-10-10T19:04:43.416Z,22.10
2017-10-10T19:07:11.804Z,18.30
2017-10-10T19:09:40.278Z,19.17
2017-10-10T19:12:08.683Z,23.33
2017-10-10T19:14:37.016Z,26.63
2017-10-10T19:17:06.099Z,20.77
2017-10-10T19:19:35.919Z,22.70
2017-10-10T19:22:04.308Z,25.70
2017-10-10T19:24:32.634Z,24.10
2017-10-10T19:27:00.991Z,22.97
2017-10-10T19:29:29.375Z,24.17
2017-10-10T19:31:57.669Z,22.87
2017-10-10T19:34:27.517Z,23.90
2017-10-10T19:36:56.607Z,24.27
2017-10-10T19:39:26.435Z,21.77
2017-10-10T19:41:54.729Z,29.03
2017-10-10T19:44:24.019Z,23.27
2017-10-10T19:46:55.377Z,35.33
2017-10-10T19:49:24.999Z,25.27
2017-10-10T19:51:55.055Z,22.13
2017-10-10T19:54:24.343Z,31.57
2017-10-10T19:56:54.583Z,28.40
2017-10-10T19:59:24.710Z,28.43
2017-10-10T20:01:54.590Z,30.90
2017-10-10T20:04:23.983Z,29.37
2017-10-10T20:06:53.633Z,28.80
2017-10-10T20:09:24.253Z,23.80
2017-10-10T20:11:53.350Z,29.00
2017-10-10T20:14:22.950Z,25.90
2017-10-10T20:16:52.307Z,24.67
2017-10-10T20:19:24.165Z,26.33
2017-10-10T20:21:54.726Z,26.70
2017-10-10T20:24:25.943Z,29.60
2017-10-10T20:26:55.420Z,25.70
2017-10-10T20:29:24.553Z,27.60
2017-10-10T20:31:54.242Z,24.53
2017-10-10T20:34:26.103Z,28.30
2017-10-10T20:36:56.164Z,26.80
2017-10-10T20:39:25.798Z,31.27
2017-10-10T20:41:56.036Z,34.80
2017-10-10T20:44:25.557Z,31.90
2017-10-10T20:46:53.981Z,27.90
2017-10-10T20:49:23.080Z,27.70
2017-10-10T20:51:52.166Z,26.30
2017-10-10T20:54:20.562Z,30.00
2017-10-10T20:56:48.946Z,28.17
2017-10-10T20:59:18.072Z,25.33
2017-10-10T21:01:47.903Z,29.27
2017-10-10T21:04:16.196Z,24.57
2017-10-10T21:06:45.291Z,23.50
2017-10-10T21:09:15.093Z,25.93
2017-10-10T21:11:43.431Z,27.23
2017-10-10T21:14:12.487Z,28.80
2017-10-10T21:16:40.774Z,25.33
2017-10-10T21:19:09.102Z,23.00
2017-10-10T21:21:38.154Z,22.17
2017-10-10T21:24:06.554Z,29.03
2017-10-10T21:26:34.859Z,27.17
2017-10-10T21:29:03.189Z,26.17
2017-10-10T21:31:32.274Z,22.70
2017-10-10T21:34:00.607Z,25.27
2017-10-10T21:36:28.894Z,28.20
2017-10-10T21:38:57.215Z,23.33
2017-10-10T21:41:25.539Z,26.50
2017-10-10T21:43:55.370Z,25.90
2017-10-10T21:46:23.654Z,29.90
2017-10-10T21:48:52.860Z,31.67
2017-10-10T21:51:22.650Z,29.80
2017-10-10T21:53:50.995Z,30.33
2017-10-10T21:56:20.062Z,27.20
2017-10-10T21:58:48.468Z,31.27
2017-10-10T22:01:16.798Z,31.63
2017-10-10T22:03:45.155Z,29.47
2017-10-10T22:06:13.442Z,27.73
2017-10-10T22:08:41.779Z,27.53
2017-10-10T22:11:10.081Z,27.37
2017-10-10T22:13:38.371Z,28.50
2017-10-10T22:16:07.634Z,34.00
2017-10-10T22:18:36.692Z,29.53
2017-10-10T22:21:05.021Z,27.67
2017-10-10T22:23:34.082Z,30.27
2017-10-10T22:26:02.407Z,29.80
2017-10-10T22:28:32.206Z,33.60
2017-10-10T22:31:00.578Z,32.63
2017-10-10T22:33:28.904Z,30.40
2017-10-10T22:35:57.199Z,30.40
2017-10-10T22:38:27.034Z,35.47
2017-10-10T22:40:56.832Z,38.43
2017-10-10T22:43:25.155Z,26.63
2017-10-10T22:45:53.547Z,34.93
2017-10-10T22:48:21.936Z,34.77
2017-10-10T22:50:50.894Z,30.23
2017-10-10T22:53:19.187Z,32.73
2017-10-10T22:55:47.614Z,33.20
2017-10-10T22:58:16.670Z,30.43
2017-10-10T23:00:44.960Z,29.57
2017-10-10T23:03:13.282Z,28.70
2017-10-10T23:05:41.570Z,26.03
2017-10-10T23:08:09.906Z,30.73
2017-10-10T23:10:38.993Z,29.83
2017-10-10T23:13:07.310Z,26.60
2017-10-10T23:15:36.367Z,24.80
2017-10-10T23:18:04.699Z,31.47
2017-10-10T23:20:33.778Z,23.03
2017-10-10T23:23:02.105Z,26.90
2017-10-10T23:25:31.216Z,31.10
2017-10-10T23:28:00.266Z,26.70
2017-10-10T23:30:28.559Z,29.83
2017-10-10T23:32:56.877Z,26.50
2017-10-10T23:35:25.163Z,28.57
2017-10-10T23:37:54.288Z,28.90
2017-10-10T23:40:22.593Z,29.70
2017-10-10T23:42:51.646Z,27.27
2017-10-10T23:45:19.958Z,29.03
2017-10-10T23:47:49.750Z,31.80
2017-10-10T23:50:18.070Z,32.00
2017-10-10T23:52:46.399Z,26.93
2017-10-10T23:55:14.682Z,28.97
2017-10-10T23:57:43.006Z,29.00
